Garrison, ND (58540)

12:31 PM CDT on September 03, 2015 (GMT -0500)
Downtown Garrison, ND | | Change Station
CLOSE
Current Station
Personal Weather Station
Location: Garrison, ND
Elevation: 1929 ft
Nearby Weather Stations

Elev 1929 ft 47.65 °N, 101.41 °W | Updated 10 minutes ago

Clear
Clear
89.8 °F
Feels Like 97 °F
N
3.7
Wind Variable Wind from South

Today
High -- | Low -- °F
--% Chance of Precip.
Yesterday
High -- | Low -- °F
Precip. -- in
7:06 AM 8:22 PM
Waning Gibbous, 68% visible
Pressure 29.66 in
Visibility 10.0 miles
Clouds Clear
Heat Index 97 °F
Dew Point 72 °F
Humidity 56%
Rainfall 0.00 in
Snow Depth Not available.
UV 7 out of 12
Pollen 10.60 out of 12
Air Quality Not available.
Flu Activity Not available.
METAR KHZE 031715Z AUTO 16010KT 10SM CLR 30/17 A2966 RMK AO2
Pressure 29.66 in
Visibility 10.0 miles
Clouds Clear
Heat Index 97 °F
Dew Point 72 °F
Humidity 56%
Rainfall 0.00 in
Snow Depth Not available.
UV 7 out of 12
Pollen 10.60 out of 12
Air Quality Not available.
Flu Activity Not available.
METAR KHZE 031715Z AUTO 16010KT 10SM CLR 30/17 A2966 RMK AO2

10-Day Weather Forecast

×

Almanac

Astronomy

Sep. 03, 2015 Rise Set
Actual Time
Civil Twilight
Nautical Twilight
Astronomical Twilight
Moon
Length of Visible Light
Length of Day
Tomorrow will be .
, % of the Moon is Illuminated

Today's Extremes

State Highs State Lows

Community

WunderPhotos

Upload Photos

1,851,991 photos uploaded!

WunderBlogs® & News

Nearby

Air Quality

  Air Quality AQ Index Pollutant
Not available.

Snow Depth

Station Depth Elevation

Earthquake Activity

City Distance Mag. Time & Date
Minimum magnitude displayed is 2.5.

Coastal Water Temperatures

Place Temperature

Stations

Nearby Weather Stations

Station Location Temp. Windchill Dew Point Humidity Wind Precip. Elev Updated Type